Weather at DRF Air Rescue München Heliport

Public forecast

Using degrees Celsius for public forecast. Weather courtesy of forecast.io.

Closest aviation weather report (METAR) to DRF Air Rescue München Heliport

Closest report is Oberpfaffenhofen Airport, 7.5 nm (13.9 km) WSW.

2024/04/22 12:20 (retrieved 30 minutes ago)

EDMO 221220Z 03012KT 9999 FEW019 SCT023 BKN041 04/M00 Q1017

Closest aviation forecast (TAF) to DRF Air Rescue München Heliport

Closest forecast is Munich Airport, 19.4 nm (36.0 km) NE.

2024/04/22 12:27 (retrieved 23 minutes ago)

TAF EDDM 221100Z 2212/2318 05008KT 9999 BKN035 TEMPO 2302/2310 4500 -RASN BKN012 PROB30 TEMPO 2303/2307 2000 SN BKN009 PROB40 TEMPO 2310/2318 BKN012